Time;durP1;ratioP1;P1;durP2;ratioP2;P2;SDS_P1;SDS_P2;PMS_P1;PMS_P2;Temp;Humidity;BMP_temperature;BMP_pressure;BME280_temperature;BME280_humidity;BME280_pressure;Samples;Min_cycle;Max_cycle;Signal;HPM_P1;HPM_P2
2021/10/10 00:01:21;;;;;;;20.30;17.30;;;;;;;;;;5059494;28;20181;-83
2021/10/10 00:03:47;;;;;;;19.98;17.90;;;;;;;;;;5058916;28;20460;-83
2021/10/10 00:06:13;;;;;;;24.33;18.80;;;;;;;;;;5058170;28;20217;-83
2021/10/10 00:08:39;;;;;;;21.35;18.23;;;;;;;;;;5059085;28;20212;-83
2021/10/10 00:11:05;;;;;;;23.40;20.30;;;;;;;;;;5056813;28;20558;-83
2021/10/10 00:13:31;;;;;;;23.42;18.42;;;;;;;;;;5061182;28;20494;-83
2021/10/10 00:15:57;;;;;;;27.40;20.38;;;;;;;;;;5054544;28;20265;-83
2021/10/10 00:18:23;;;;;;;22.75;18.15;;;;;;;;;;5057787;28;20216;-83
2021/10/10 00:20:49;;;;;;;24.55;17.48;;;;;;;;;;5061029;28;20181;-83
2021/10/10 00:23:15;;;;;;;22.10;17.20;;;;;;;;;;5061515;28;20197;-83
2021/10/10 00:25:41;;;;;;;21.50;18.30;;;;;;;;;;5063180;28;20424;-83
2021/10/10 00:28:07;;;;;;;23.92;17.75;;;;;;;;;;5056254;28;20530;-83
2021/10/10 00:30:33;;;;;;;22.27;17.63;;;;;;;;;;5055337;28;20182;-83
2021/10/10 00:32:59;;;;;;;26.50;19.00;;;;;;;;;;5058780;28;20243;-82
2021/10/10 00:35:25;;;;;;;22.30;17.30;;;;;;;;;;5072962;28;20196;-83
2021/10/10 00:37:51;;;;;;;25.05;17.98;;;;;;;;;;5058550;28;20177;-83
2021/10/10 00:40:17;;;;;;;23.40;17.70;;;;;;;;;;5055513;28;20261;-83
2021/10/10 00:42:43;;;;;;;22.50;17.73;;;;;;;;;;5052745;28;20378;-83
2021/10/10 00:45:09;;;;;;;24.23;17.33;;;;;;;;;;5059092;28;20374;-83
2021/10/10 00:47:36;;;;;;;24.75;17.88;;;;;;;;;;5057346;28;20177;-83
2021/10/10 00:50:02;;;;;;;27.02;19.35;;;;;;;;;;5056394;28;20727;-84
2021/10/10 00:52:28;;;;;;;31.45;20.92;;;;;;;;;;5057373;28;20184;-83
2021/10/10 00:54:54;;;;;;;28.17;20.63;;;;;;;;;;5059092;28;20355;-83
2021/10/10 00:57:23;;;;;;;28.90;20.52;;;;;;;;;;5056364;28;20249;-83
2021/10/10 00:59:50;;;;;;;23.85;18.63;;;;;;;;;;5071766;28;20192;-83
2021/10/10 01:02:16;;;;;;;24.33;19.35;;;;;;;;;;5055149;28;20194;-83
2021/10/10 01:04:42;;;;;;;24.23;18.90;;;;;;;;;;5060550;28;20224;-84
2021/10/10 01:07:09;;;;;;;22.10;18.45;;;;;;;;;;5053113;28;20448;-83
2021/10/10 01:09:35;;;;;;;25.52;18.13;;;;;;;;;;5054098;28;20720;-84
2021/10/10 01:12:01;;;;;;;21.45;18.15;;;;;;;;;;5059202;28;20270;-83
2021/10/10 01:14:27;;;;;;;28.10;18.60;;;;;;;;;;5056173;28;20252;-83
2021/10/10 01:16:53;;;;;;;25.55;19.15;;;;;;;;;;5057807;28;20174;-84
2021/10/10 01:19:19;;;;;;;21.60;16.73;;;;;;;;;;5060213;28;20712;-83
2021/10/10 01:21:46;;;;;;;24.60;19.08;;;;;;;;;;5058475;28;20443;-84
2021/10/10 01:24:12;;;;;;;27.10;20.73;;;;;;;;;;5054333;28;20192;-83
2021/10/10 01:26:38;;;;;;;26.45;19.40;;;;;;;;;;5058959;28;20185;-83
2021/10/10 01:29:04;;;;;;;25.65;18.15;;;;;;;;;;5057371;28;20205;-83
2021/10/10 01:31:30;;;;;;;24.40;17.98;;;;;;;;;;5056630;28;20169;-83
2021/10/10 01:33:56;;;;;;;22.03;18.07;;;;;;;;;;5053193;28;20602;-83
2021/10/10 01:36:22;;;;;;;25.10;19.00;;;;;;;;;;5055616;28;20436;-82
2021/10/10 01:38:48;;;;;;;25.77;18.55;;;;;;;;;;5057877;28;20185;-82
2021/10/10 01:41:14;;;;;;;21.10;17.40;;;;;;;;;;5054309;28;20181;-83
2021/10/10 01:43:41;;;;;;;21.48;16.88;;;;;;;;;;5058638;28;20217;-83
2021/10/10 01:46:07;;;;;;;21.65;17.20;;;;;;;;;;5060428;28;20544;-83
2021/10/10 01:48:33;;;;;;;25.67;19.02;;;;;;;;;;5052634;28;20269;-83
2021/10/10 01:51:00;;;;;;;22.02;17.60;;;;;;;;;;5058608;28;20181;-84
2021/10/10 01:53:27;;;;;;;21.25;17.77;;;;;;;;;;5070787;28;20181;-83
2021/10/10 01:55:53;;;;;;;22.35;17.92;;;;;;;;;;5056992;28;20172;-83
2021/10/10 01:58:19;;;;;;;25.10;16.73;;;;;;;;;;5060745;28;20177;-83
2021/10/10 02:00:45;;;;;;;22.38;18.20;;;;;;;;;;5055791;28;20205;-83
2021/10/10 02:03:11;;;;;;;21.02;16.95;;;;;;;;;;5059895;28;20192;-83
2021/10/10 02:05:37;;;;;;;18.65;16.65;;;;;;;;;;5059639;28;20186;-83
2021/10/10 02:08:03;;;;;;;24.67;17.90;;;;;;;;;;5056329;28;20181;-83
2021/10/10 02:10:29;;;;;;;19.27;15.77;;;;;;;;;;5055894;28;20180;-83
2021/10/10 02:12:55;;;;;;;25.50;18.07;;;;;;;;;;5052759;28;20181;-84
2021/10/10 02:15:21;;;;;;;25.83;16.30;;;;;;;;;;5055359;28;20482;-83
2021/10/10 02:17:47;;;;;;;25.43;16.97;;;;;;;;;;5058220;28;20443;-83
2021/10/10 02:20:13;;;;;;;19.80;16.20;;;;;;;;;;5054238;28;20435;-83
2021/10/10 02:22:39;;;;;;;21.80;16.10;;;;;;;;;;5061016;28;20207;-83
2021/10/10 02:25:06;;;;;;;23.23;16.60;;;;;;;;;;5056966;28;20197;-83
2021/10/10 02:27:32;;;;;;;24.25;15.98;;;;;;;;;;5060260;28;20571;-83
2021/10/10 02:29:58;;;;;;;22.60;16.40;;;;;;;;;;5058783;28;20246;-83
2021/10/10 02:32:24;;;;;;;28.58;16.02;;;;;;;;;;5058402;28;20437;-83
2021/10/10 02:34:50;;;;;;;18.70;15.77;;;;;;;;;;5056911;28;20240;-83
2021/10/10 02:37:16;;;;;;;22.13;15.80;;;;;;;;;;5059938;28;20427;-83
2021/10/10 02:39:42;;;;;;;26.02;17.13;;;;;;;;;;5058876;28;20598;-83
2021/10/10 02:42:08;;;;;;;22.45;16.30;;;;;;;;;;5061028;28;20745;-83
2021/10/10 02:44:34;;;;;;;23.02;16.90;;;;;;;;;;5065682;28;20237;-83
2021/10/10 02:47:00;;;;;;;19.55;15.63;;;;;;;;;;5064274;28;20188;-83
2021/10/10 02:49:26;;;;;;;23.63;17.52;;;;;;;;;;5059673;28;20208;-83
2021/10/10 02:51:52;;;;;;;21.88;15.55;;;;;;;;;;5057099;28;20189;-83
2021/10/10 02:54:18;;;;;;;22.53;16.33;;;;;;;;;;5057977;28;20188;-83
2021/10/10 02:56:44;;;;;;;22.52;16.30;;;;;;;;;;5061253;28;20427;-83
2021/10/10 02:59:10;;;;;;;21.57;14.90;;;;;;;;;;5058511;28;20185;-83
2021/10/10 03:01:36;;;;;;;23.77;15.40;;;;;;;;;;5065528;28;20435;-83
2021/10/10 03:04:02;;;;;;;20.60;16.60;;;;;;;;;;5061430;28;20453;-83
2021/10/10 03:06:28;;;;;;;22.50;15.40;;;;;;;;;;5057707;28;20440;-82
2021/10/10 03:08:54;;;;;;;24.98;16.48;;;;;;;;;;5061549;28;20291;-82
2021/10/10 03:11:20;;;;;;;22.00;15.60;;;;;;;;;;5060631;28;20213;-83
2021/10/10 03:13:47;;;;;;;22.48;16.08;;;;;;;;;;5059853;28;20268;-83
2021/10/10 03:16:13;;;;;;;25.33;16.00;;;;;;;;;;5057137;28;20188;-82
2021/10/10 03:18:39;;;;;;;18.90;16.05;;;;;;;;;;5058592;28;20185;-83
2021/10/10 03:21:06;;;;;;;24.85;16.92;;;;;;;;;;5060780;28;20193;-83
2021/10/10 03:23:32;;;;;;;21.35;15.35;;;;;;;;;;5058687;28;20235;-82
2021/10/10 03:25:57;;;;;;;20.33;15.87;;;;;;;;;;5059108;28;20531;-83
2021/10/10 03:28:23;;;;;;;19.48;15.68;;;;;;;;;;5058168;28;20462;-83
2021/10/10 03:30:50;;;;;;;19.42;15.25;;;;;;;;;;5061855;28;20235;-83
2021/10/10 03:33:15;;;;;;;21.17;16.20;;;;;;;;;;5057461;28;20197;-83
2021/10/10 03:35:42;;;;;;;22.17;16.17;;;;;;;;;;5057640;28;20178;-83
2021/10/10 03:38:08;;;;;;;22.73;16.80;;;;;;;;;;5070234;28;20412;-82
2021/10/10 03:40:34;;;;;;;22.58;14.80;;;;;;;;;;5058732;28;20208;-83
2021/10/10 03:43:00;;;;;;;22.02;16.13;;;;;;;;;;5059817;28;20181;-83
2021/10/10 03:45:26;;;;;;;23.47;15.90;;;;;;;;;;5057580;28;20627;-83
2021/10/10 03:47:52;;;;;;;22.15;15.50;;;;;;;;;;5059945;28;20446;-83
2021/10/10 03:50:18;;;;;;;24.50;16.50;;;;;;;;;;5071428;28;20271;-83
2021/10/10 03:52:44;;;;;;;20.65;15.70;;;;;;;;;;5064229;28;20181;-82
2021/10/10 03:55:44;;;;;;;21.17;16.83;;;;;;;;;;5056012;28;20223;-82
2021/10/10 03:58:03;;;;;;;21.05;15.10;;;;;;;;;;5053024;28;20615;-83
2021/10/10 04:00:30;;;;;;;24.73;16.30;;;;;;;;;;5057844;28;20188;-83
2021/10/10 04:02:59;;;;;;;24.20;16.67;;;;;;;;;;5050058;28;20207;-83
2021/10/10 04:07:54;;;;;;;26.23;17.50;;;;;;;;;;5058382;28;20177;-83
2021/10/10 04:10:20;;;;;;;23.90;16.60;;;;;;;;;;5062056;28;20243;-83
2021/10/10 04:12:46;;;;;;;23.35;16.10;;;;;;;;;;5055192;28;20879;-82
2021/10/10 04:15:13;;;;;;;23.15;15.60;;;;;;;;;;5057108;28;20240;-83
2021/10/10 04:17:39;;;;;;;24.65;16.63;;;;;;;;;;5059049;28;20201;-82
2021/10/10 04:20:05;;;;;;;22.73;16.00;;;;;;;;;;5056222;28;20188;-82
2021/10/10 04:22:31;;;;;;;26.38;18.42;;;;;;;;;;5061957;28;20169;-83
2021/10/10 04:24:57;;;;;;;21.40;15.95;;;;;;;;;;5055473;28;20192;-83
2021/10/10 04:27:23;;;;;;;20.65;15.10;;;;;;;;;;5062707;28;20181;-83
2021/10/10 04:29:49;;;;;;;22.60;17.25;;;;;;;;;;5059482;28;20209;-83
2021/10/10 04:32:15;;;;;;;20.75;15.82;;;;;;;;;;5058008;28;20206;-83
2021/10/10 04:34:41;;;;;;;25.67;17.03;;;;;;;;;;5060208;28;20228;-83
2021/10/10 04:37:07;;;;;;;23.08;15.98;;;;;;;;;;5055682;28;20431;-82
2021/10/10 04:39:33;;;;;;;22.17;15.88;;;;;;;;;;5055860;28;20659;-82
2021/10/10 04:41:59;;;;;;;21.63;14.77;;;;;;;;;;5058371;28;20185;-82
2021/10/10 04:44:25;;;;;;;23.85;15.48;;;;;;;;;;5070965;28;20468;-82
2021/10/10 04:46:51;;;;;;;23.67;16.63;;;;;;;;;;5059081;28;20177;-82
2021/10/10 04:49:17;;;;;;;20.13;14.35;;;;;;;;;;5055173;28;20232;-83
2021/10/10 04:51:43;;;;;;;21.80;15.23;;;;;;;;;;5055409;28;20194;-83
2021/10/10 04:54:09;;;;;;;24.00;15.52;;;;;;;;;;5056432;28;20181;-82
2021/10/10 04:56:35;;;;;;;23.80;17.00;;;;;;;;;;5057434;28;20772;-83
2021/10/10 04:59:01;;;;;;;23.80;15.98;;;;;;;;;;5057051;28;20189;-82
2021/10/10 05:01:27;;;;;;;21.10;15.47;;;;;;;;;;5056273;28;20177;-83
2021/10/10 05:03:53;;;;;;;23.43;16.70;;;;;;;;;;5054711;28;20447;-83
2021/10/10 05:06:19;;;;;;;18.50;14.17;;;;;;;;;;5057973;28;20629;-82
2021/10/10 05:08:45;;;;;;;23.88;15.90;;;;;;;;;;5070599;28;20495;-82
2021/10/10 05:11:11;;;;;;;25.10;15.93;;;;;;;;;;5054190;28;20181;-83
2021/10/10 05:13:37;;;;;;;24.17;15.60;;;;;;;;;;5060694;28;20226;-83
2021/10/10 05:16:03;;;;;;;22.98;15.98;;;;;;;;;;5054741;28;20431;-82
2021/10/10 05:18:29;;;;;;;21.52;15.30;;;;;;;;;;5055287;28;20208;-82
2021/10/10 05:20:56;;;;;;;24.52;15.57;;;;;;;;;;5058187;28;20188;-84
2021/10/10 05:23:22;;;;;;;21.45;15.13;;;;;;;;;;5070153;28;20257;-82
2021/10/10 05:25:48;;;;;;;22.90;15.83;;;;;;;;;;5057046;28;20181;-83
2021/10/10 05:28:14;;;;;;;23.52;14.82;;;;;;;;;;5061807;28;20423;-82
2021/10/10 05:30:40;;;;;;;20.02;13.77;;;;;;;;;;5056444;28;20200;-83
2021/10/10 05:33:06;;;;;;;21.15;14.38;;;;;;;;;;5057536;28;20177;-83
2021/10/10 05:35:32;;;;;;;24.73;16.13;;;;;;;;;;5074976;28;20216;-83
2021/10/10 05:37:58;;;;;;;23.38;17.35;;;;;;;;;;5059085;28;20181;-83
2021/10/10 05:40:24;;;;;;;26.00;17.05;;;;;;;;;;5055529;28;20196;-82
2021/10/10 05:42:50;;;;;;;21.93;15.50;;;;;;;;;;5057324;28;20181;-83
2021/10/10 05:45:16;;;;;;;21.07;15.40;;;;;;;;;;5055147;28;20432;-82
2021/10/10 05:47:42;;;;;;;22.80;15.23;;;;;;;;;;5056351;28;20516;-83
2021/10/10 05:50:08;;;;;;;26.35;15.48;;;;;;;;;;5057552;28;20244;-83
2021/10/10 05:52:34;;;;;;;20.08;14.63;;;;;;;;;;5056633;28;20634;-83
2021/10/10 05:55:00;;;;;;;24.73;16.75;;;;;;;;;;5056299;28;20181;-83
2021/10/10 05:57:42;;;;;;;21.60;15.63;;;;;;;;;;5055871;28;20188;-83
2021/10/10 06:00:09;;;;;;;23.85;16.52;;;;;;;;;;5063295;28;20269;-84
2021/10/10 06:02:35;;;;;;;22.23;15.20;;;;;;;;;;5059912;28;20189;-84
2021/10/10 06:05:01;;;;;;;23.45;16.52;;;;;;;;;;5056640;28;20177;-83
2021/10/10 06:07:27;;;;;;;27.70;17.97;;;;;;;;;;5051250;28;20174;-84
2021/10/10 06:09:54;;;;;;;22.40;15.90;;;;;;;;;;5050560;28;20471;-84
2021/10/10 06:12:20;;;;;;;26.75;17.48;;;;;;;;;;5055574;28;20494;-83
2021/10/10 06:14:50;;;;;;;22.73;14.60;;;;;;;;;;5074538;28;20181;-84
2021/10/10 06:17:17;;;;;;;23.40;15.63;;;;;;;;;;5058994;28;20177;-83
2021/10/10 06:19:43;;;;;;;22.73;15.98;;;;;;;;;;5065465;28;20209;-84
2021/10/10 06:22:09;;;;;;;22.23;15.77;;;;;;;;;;5062295;28;20196;-83
2021/10/10 06:24:35;;;;;;;22.27;16.10;;;;;;;;;;5057710;28;20192;-83
2021/10/10 06:27:02;;;;;;;24.10;16.67;;;;;;;;;;5061426;28;20911;-83
2021/10/10 06:29:28;;;;;;;23.48;16.23;;;;;;;;;;5059937;28;20259;-83
2021/10/10 06:31:54;;;;;;;24.37;16.33;;;;;;;;;;5059305;28;20600;-84
2021/10/10 06:34:20;;;;;;;21.60;15.77;;;;;;;;;;5064803;28;20452;-83
2021/10/10 06:36:46;;;;;;;21.45;15.15;;;;;;;;;;5060752;28;20169;-83
2021/10/10 06:39:12;;;;;;;27.37;16.43;;;;;;;;;;5063563;28;20693;-83
2021/10/10 06:41:38;;;;;;;25.35;17.83;;;;;;;;;;5061266;28;20440;-83
2021/10/10 06:44:06;;;;;;;25.92;17.55;;;;;;;;;;5058986;28;20224;-84
2021/10/10 06:46:32;;;;;;;24.35;16.75;;;;;;;;;;5063683;28;20650;-86
2021/10/10 06:48:58;;;;;;;24.75;16.88;;;;;;;;;;5061582;28;20216;-87
2021/10/10 06:51:24;;;;;;;26.63;18.23;;;;;;;;;;5059991;28;20182;-86
2021/10/10 06:53:50;;;;;;;22.92;15.80;;;;;;;;;;5062178;28;20178;-86
2021/10/10 06:56:16;;;;;;;27.23;16.40;;;;;;;;;;5058469;28;20187;-87
2021/10/10 06:58:42;;;;;;;22.20;15.97;;;;;;;;;;5064734;28;20270;-86
2021/10/10 07:01:12;;;;;;;23.67;16.00;;;;;;;;;;5060597;28;20447;-85
2021/10/10 07:03:38;;;;;;;22.77;15.65;;;;;;;;;;5062169;28;20474;-86
2021/10/10 07:06:04;;;;;;;22.83;15.80;;;;;;;;;;5062253;28;20185;-85
2021/10/10 07:08:30;;;;;;;27.00;17.03;;;;;;;;;;5060767;28;20459;-85
2021/10/10 07:10:56;;;;;;;22.80;16.90;;;;;;;;;;5077083;28;20474;-86
2021/10/10 07:13:22;;;;;;;23.13;16.70;;;;;;;;;;5078119;28;20431;-86
2021/10/10 07:15:50;;;;;;;29.73;16.67;;;;;;;;;;5063651;28;20276;-87
2021/10/10 07:18:21;;;;;;;29.63;18.20;;;;;;;;;;5059925;28;20201;-86
2021/10/10 07:21:16;;;;;;;25.98;16.98;;;;;;;;;;5063625;28;20173;-86
2021/10/10 07:26:21;;;;;;;24.42;17.02;;;;;;;;;;5059362;28;20181;-86
2021/10/10 07:28:47;;;;;;;24.83;18.77;;;;;;;;;;5072967;28;20209;-86
2021/10/10 07:31:13;;;;;;;26.13;18.38;;;;;;;;;;5060191;28;20237;-86
2021/10/10 07:33:40;;;;;;;27.92;18.85;;;;;;;;;;5060372;28;20216;-86
2021/10/10 07:36:06;;;;;;;26.63;16.60;;;;;;;;;;5061200;28;20249;-86
2021/10/10 07:38:32;;;;;;;28.15;19.25;;;;;;;;;;5063433;28;20181;-86
2021/10/10 07:41:00;;;;;;;30.90;18.95;;;;;;;;;;5062435;28;20246;-86
2021/10/10 07:43:26;;;;;;;30.75;19.63;;;;;;;;;;5062021;28;20221;-86
2021/10/10 07:45:52;;;;;;;28.70;19.58;;;;;;;;;;5060264;28;20189;-88
2021/10/10 07:48:19;;;;;;;29.35;21.00;;;;;;;;;;5059536;28;20226;-87
2021/10/10 07:50:46;;;;;;;31.30;20.80;;;;;;;;;;5074150;28;20185;-87
2021/10/10 07:53:12;;;;;;;29.90;21.27;;;;;;;;;;5056989;28;20249;-87
2021/10/10 07:55:38;;;;;;;31.27;21.63;;;;;;;;;;5064462;28;20185;-86
2021/10/10 07:58:04;;;;;;;37.53;23.63;;;;;;;;;;5061676;28;20268;-87
2021/10/10 08:00:30;;;;;;;35.57;21.23;;;;;;;;;;5058020;28;20219;-87
2021/10/10 08:02:58;;;;;;;41.22;24.98;;;;;;;;;;5063052;28;20444;-86
2021/10/10 08:05:24;;;;;;;34.97;24.75;;;;;;;;;;5074791;28;20185;-87
2021/10/10 08:07:51;;;;;;;40.55;26.75;;;;;;;;;;5064639;28;20169;-86
2021/10/10 08:10:17;;;;;;;39.25;26.85;;;;;;;;;;5058319;28;20216;-87
2021/10/10 08:12:43;;;;;;;33.80;24.90;;;;;;;;;;5059957;28;20495;-87
2021/10/10 08:15:10;;;;;;;40.65;25.30;;;;;;;;;;5059478;28;20208;-87
2021/10/10 08:17:36;;;;;;;35.28;23.30;;;;;;;;;;5074254;28;20209;-86
2021/10/10 08:20:03;;;;;;;39.20;25.30;;;;;;;;;;5057924;28;20177;-87
2021/10/10 08:22:33;;;;;;;45.58;27.77;;;;;;;;;;5073866;28;20168;-88
2021/10/10 08:24:59;;;;;;;39.88;24.70;;;;;;;;;;5061837;28;20193;-86
2021/10/10 08:27:25;;;;;;;36.03;25.33;;;;;;;;;;5057469;28;20263;-89
2021/10/10 08:29:51;;;;;;;39.17;25.90;;;;;;;;;;5072574;28;20468;-88
2021/10/10 08:32:17;;;;;;;33.35;24.13;;;;;;;;;;5055729;28;20444;-88
2021/10/10 08:34:43;;;;;;;29.40;21.97;;;;;;;;;;5063525;28;20179;-87
2021/10/10 08:37:09;;;;;;;36.40;25.40;;;;;;;;;;5061164;28;20453;-88
2021/10/10 08:39:35;;;;;;;37.53;23.23;;;;;;;;;;5056241;28;20178;-87
2021/10/10 08:42:03;;;;;;;33.50;22.95;;;;;;;;;;5058681;28;20276;-90
2021/10/10 08:44:36;;;;;;;34.38;24.02;;;;;;;;;;5073399;28;20209;-87
2021/10/10 08:47:05;;;;;;;29.38;22.85;;;;;;;;;;5058273;28;20323;-87
2021/10/10 08:49:32;;;;;;;35.33;23.17;;;;;;;;;;5055992;28;20221;-88
2021/10/10 08:52:02;;;;;;;35.10;23.85;;;;;;;;;;5060625;28;20235;-88
2021/10/10 08:54:28;;;;;;;33.83;23.38;;;;;;;;;;5059977;28;20188;-89
2021/10/10 08:56:54;;;;;;;32.33;23.03;;;;;;;;;;5059165;28;20278;-88
2021/10/10 08:59:22;;;;;;;34.60;23.23;;;;;;;;;;5070178;28;20433;-88
2021/10/10 09:01:49;;;;;;;32.78;23.02;;;;;;;;;;5058178;28;20181;-88
2021/10/10 09:04:15;;;;;;;36.92;24.38;;;;;;;;;;5055058;28;20185;-88
2021/10/10 09:06:41;;;;;;;35.13;23.67;;;;;;;;;;5057623;28;20201;-86
2021/10/10 09:09:25;;;;;;;34.38;24.02;;;;;;;;;;5058358;28;20205;-86
2021/10/10 09:11:51;;;;;;;33.13;23.80;;;;;;;;;;5071764;28;20559;-89
2021/10/10 09:14:17;;;;;;;34.22;23.90;;;;;;;;;;5070983;28;20189;-87
2021/10/10 09:16:44;;;;;;;32.47;23.40;;;;;;;;;;5059467;28;20180;-89
2021/10/10 09:19:27;;;;;;;28.95;23.25;;;;;;;;;;5056668;28;20189;-87
2021/10/10 09:22:06;;;;;;;25.30;20.88;;;;;;;;;;5058636;28;20189;-89
2021/10/10 09:24:32;;;;;;;30.33;21.08;;;;;;;;;;5053263;28;20190;-87
2021/10/10 09:26:58;;;;;;;26.17;20.08;;;;;;;;;;5058356;28;20260;-81
2021/10/10 09:29:31;;;;;;;30.37;21.70;;;;;;;;;;5056451;28;20196;-86
2021/10/10 09:32:06;;;;;;;30.90;21.95;;;;;;;;;;5056688;28;20487;-85
2021/10/10 09:34:32;;;;;;;29.92;23.17;;;;;;;;;;5056635;28;20172;-86
2021/10/10 09:37:04;;;;;;;30.58;22.33;;;;;;;;;;5055343;28;20189;-88
2021/10/10 09:39:39;;;;;;;34.08;23.50;;;;;;;;;;5055079;28;20185;-88
2021/10/10 09:42:05;;;;;;;34.10;22.20;;;;;;;;;;5065808;28;20189;-88
2021/10/10 09:44:44;;;;;;;31.58;22.63;;;;;;;;;;5060035;28;20214;-83
2021/10/10 09:47:11;;;;;;;26.23;21.42;;;;;;;;;;5061055;28;20586;-87
2021/10/10 09:49:38;;;;;;;30.50;20.75;;;;;;;;;;5060985;28;20196;-87
2021/10/10 09:52:10;;;;;;;31.13;22.80;;;;;;;;;;5059745;28;20193;-87
2021/10/10 09:54:55;;;;;;;31.50;22.90;;;;;;;;;;5054179;28;20189;-81
2021/10/10 09:57:22;;;;;;;28.13;22.05;;;;;;;;;;5056432;28;20209;-86
2021/10/10 09:59:48;;;;;;;26.17;19.38;;;;;;;;;;5059597;28;20189;-83
2021/10/10 10:02:15;;;;;;;27.08;19.98;;;;;;;;;;5055333;28;20712;-85
2021/10/10 10:04:45;;;;;;;30.55;21.95;;;;;;;;;;5062313;28;20173;-83
2021/10/10 10:07:18;;;;;;;29.30;21.40;;;;;;;;;;5056012;28;20539;-82
2021/10/10 10:09:50;;;;;;;32.58;22.23;;;;;;;;;;5052744;28;20248;-87
2021/10/10 10:12:17;;;;;;;26.17;20.83;;;;;;;;;;5055302;28;20198;-83
2021/10/10 10:14:43;;;;;;;27.70;22.50;;;;;;;;;;5058054;28;20208;-87
2021/10/10 10:17:09;;;;;;;24.75;19.75;;;;;;;;;;5048425;28;20177;-87
2021/10/10 10:19:35;;;;;;;27.25;20.55;;;;;;;;;;5061474;28;20177;-85
2021/10/10 10:22:02;;;;;;;26.00;20.70;;;;;;;;;;5055178;28;20196;-89
2021/10/10 10:24:30;;;;;;;29.63;21.58;;;;;;;;;;5054704;28;20566;-89
2021/10/10 10:26:56;;;;;;;30.38;22.67;;;;;;;;;;5072444;28;20274;-84
2021/10/10 10:29:25;;;;;;;23.60;19.63;;;;;;;;;;5060085;28;20613;-80
2021/10/10 10:31:52;;;;;;;26.70;19.10;;;;;;;;;;5059536;28;20172;-90
2021/10/10 10:34:22;;;;;;;26.27;21.63;;;;;;;;;;5067801;28;20180;-89
2021/10/10 10:37:09;;;;;;;26.30;19.10;;;;;;;;;;5051049;28;20182;-89
2021/10/10 10:39:39;;;;;;;19.42;16.50;;;;;;;;;;5055940;28;20272;-90
2021/10/10 10:42:10;;;;;;;21.40;16.42;;;;;;;;;;5058385;28;20744;-88
2021/10/10 10:44:39;;;;;;;23.58;17.58;;;;;;;;;;5072986;28;20228;-87
2021/10/10 10:47:31;;;;;;;26.88;18.58;;;;;;;;;;5057378;28;20201;-89
2021/10/10 10:49:59;;;;;;;24.65;17.85;;;;;;;;;;5053974;28;20231;-86
2021/10/10 10:52:36;;;;;;;22.55;17.60;;;;;;;;;;5060581;28;20178;-88
2021/10/10 10:55:14;;;;;;;24.77;18.08;;;;;;;;;;5058922;28;20188;-88
2021/10/10 10:57:43;;;;;;;21.95;17.70;;;;;;;;;;5053752;28;20186;-89
2021/10/10 11:00:21;;;;;;;19.75;16.48;;;;;;;;;;5058953;28;20195;-87
2021/10/10 11:02:54;;;;;;;24.05;17.17;;;;;;;;;;5074094;28;20188;-88
2021/10/10 11:05:32;;;;;;;23.95;17.25;;;;;;;;;;5073792;28;20183;-90
2021/10/10 11:07:59;;;;;;;22.58;17.73;;;;;;;;;;5062101;28;20187;-89
2021/10/10 11:10:25;;;;;;;22.63;17.98;;;;;;;;;;5058405;28;20227;-87
2021/10/10 11:13:06;;;;;;;20.30;17.73;;;;;;;;;;5056098;28;20203;-89
2021/10/10 11:15:49;;;;;;;21.83;18.67;;;;;;;;;;5059142;28;20274;-88
2021/10/10 11:18:16;;;;;;;22.73;18.70;;;;;;;;;;5059288;28;20182;-87
2021/10/10 11:20:53;;;;;;;23.10;17.08;;;;;;;;;;5077000;28;20177;-89
2021/10/10 11:23:20;;;;;;;21.63;17.15;;;;;;;;;;5058081;28;20175;-89
2021/10/10 11:25:49;;;;;;;17.77;15.73;;;;;;;;;;5061451;28;20179;-89
2021/10/10 11:28:15;;;;;;;30.02;23.08;;;;;;;;;;5058324;28;20172;-86
2021/10/10 11:30:41;;;;;;;23.73;19.23;;;;;;;;;;5057839;28;20626;-88
2021/10/10 11:33:07;;;;;;;19.60;16.05;;;;;;;;;;5059315;28;20196;-89
2021/10/10 11:35:34;;;;;;;23.73;15.57;;;;;;;;;;5058660;28;20184;-82
2021/10/10 11:38:07;;;;;;;22.15;15.27;;;;;;;;;;5063326;28;20782;-85
2021/10/10 11:40:36;;;;;;;23.05;16.20;;;;;;;;;;5060864;28;20184;-88
2021/10/10 11:43:02;;;;;;;20.13;15.85;;;;;;;;;;5059130;28;21775;-88
2021/10/10 11:45:29;;;;;;;19.38;16.40;;;;;;;;;;5059634;28;20199;-87
2021/10/10 11:47:55;;;;;;;20.80;17.25;;;;;;;;;;5063226;28;20196;-89
2021/10/10 11:50:21;;;;;;;21.13;17.00;;;;;;;;;;5073760;28;20259;-88
2021/10/10 11:52:59;;;;;;;21.95;16.33;;;;;;;;;;5063923;28;20177;-89
2021/10/10 11:55:37;;;;;;;16.52;13.85;;;;;;;;;;5064194;28;20183;-91
2021/10/10 11:58:03;;;;;;;20.55;14.85;;;;;;;;;;5058162;28;20180;-89
2021/10/10 12:00:30;;;;;;;16.17;14.57;;;;;;;;;;5058074;28;20246;-89
2021/10/10 12:03:04;;;;;;;18.70;14.82;;;;;;;;;;5054586;28;20226;-89
2021/10/10 12:05:38;;;;;;;23.83;15.55;;;;;;;;;;5061252;28;20178;-87
2021/10/10 12:08:16;;;;;;;16.35;13.50;;;;;;;;;;5058457;28;20211;-90
2021/10/10 12:10:42;;;;;;;13.32;11.85;;;;;;;;;;5077418;28;20180;-88
2021/10/10 12:13:08;;;;;;;16.80;13.88;;;;;;;;;;5059188;28;20182;-90
2021/10/10 12:15:34;;;;;;;15.88;14.10;;;;;;;;;;5058674;28;20188;-90
2021/10/10 12:18:00;;;;;;;17.50;15.00;;;;;;;;;;5061323;28;20188;-88
2021/10/10 12:20:31;;;;;;;16.08;14.50;;;;;;;;;;5060187;28;20185;-89
2021/10/10 12:23:07;;;;;;;18.58;15.25;;;;;;;;;;5074268;28;20177;-89
2021/10/10 12:25:37;;;;;;;18.77;14.15;;;;;;;;;;5061860;28;20199;-88
2021/10/10 12:28:11;;;;;;;19.38;14.15;;;;;;;;;;5058952;28;20184;-90
2021/10/10 12:30:39;;;;;;;21.35;15.05;;;;;;;;;;5058236;28;20208;-90
2021/10/10 12:33:23;;;;;;;20.75;15.10;;;;;;;;;;5060233;28;20275;-92
2021/10/10 12:35:58;;;;;;;16.13;14.38;;;;;;;;;;5060485;28;20193;-87
2021/10/10 12:38:44;;;;;;;17.58;15.18;;;;;;;;;;5060383;28;20188;-86
2021/10/10 12:41:26;;;;;;;16.30;13.75;;;;;;;;;;5057319;28;20180;-87
2021/10/10 12:43:55;;;;;;;17.80;15.35;;;;;;;;;;5074883;28;20221;-85
2021/10/10 12:46:22;;;;;;;23.42;15.43;;;;;;;;;;5075346;28;20182;-83
2021/10/10 12:49:04;;;;;;;17.77;13.88;;;;;;;;;;5058641;28;20197;-89
2021/10/10 12:51:31;;;;;;;17.00;14.90;;;;;;;;;;5056264;28;20182;-86
2021/10/10 12:54:09;;;;;;;19.38;14.23;;;;;;;;;;5055847;28;20220;-87
2021/10/10 12:56:35;;;;;;;17.25;14.70;;;;;;;;;;5060040;28;20253;-88
2021/10/10 12:59:01;;;;;;;16.45;14.35;;;;;;;;;;5058330;28;20181;-90
2021/10/10 13:01:28;;;;;;;20.50;15.50;;;;;;;;;;5062014;28;20192;-88
2021/10/10 13:03:55;;;;;;;19.00;15.90;;;;;;;;;;5054002;28;20469;-89
2021/10/10 13:06:21;;;;;;;21.63;17.42;;;;;;;;;;5057193;28;20182;-87
2021/10/10 13:08:47;;;;;;;23.90;16.17;;;;;;;;;;5072146;28;20217;-90
2021/10/10 13:11:13;;;;;;;16.60;14.88;;;;;;;;;;5054518;28;20181;-92
2021/10/10 13:13:39;;;;;;;17.40;13.95;;;;;;;;;;5048704;28;20178;-82
2021/10/10 13:16:05;;;;;;;20.10;14.98;;;;;;;;;;5054226;28;20646;-91
2021/10/10 13:18:31;;;;;;;18.85;14.70;;;;;;;;;;5060655;28;20671;-91
2021/10/10 13:20:58;;;;;;;22.25;15.45;;;;;;;;;;5055392;28;20257;-92
2021/10/10 13:23:24;;;;;;;18.88;15.00;;;;;;;;;;5060498;28;20189;-89
2021/10/10 13:25:50;;;;;;;19.23;16.20;;;;;;;;;;5058976;28;20208;-87
2021/10/10 13:28:16;;;;;;;21.50;16.10;;;;;;;;;;5056035;28;20412;-89
2021/10/10 13:30:45;;;;;;;19.27;15.27;;;;;;;;;;5054440;28;20524;-88
2021/10/10 13:33:12;;;;;;;16.05;14.15;;;;;;;;;;5057532;28;20185;-88
2021/10/10 13:35:41;;;;;;;18.92;15.80;;;;;;;;;;5073495;28;20185;-89
2021/10/10 13:38:07;;;;;;;17.50;14.90;;;;;;;;;;5057475;28;20634;-88
2021/10/10 13:40:33;;;;;;;20.40;15.97;;;;;;;;;;5061102;28;20200;-88
2021/10/10 13:42:59;;;;;;;18.13;14.07;;;;;;;;;;5054450;28;20491;-88
2021/10/10 13:45:25;;;;;;;20.20;14.77;;;;;;;;;;5055661;28;20181;-89
2021/10/10 13:47:51;;;;;;;21.27;15.55;;;;;;;;;;5058919;28;20258;-83
2021/10/10 13:50:17;;;;;;;19.27;15.48;;;;;;;;;;5055218;28;20216;-89
2021/10/10 13:52:43;;;;;;;16.75;14.55;;;;;;;;;;5062557;28;20206;-92
2021/10/10 13:55:12;;;;;;;18.73;14.50;;;;;;;;;;5054804;28;20189;-90
2021/10/10 13:57:38;;;;;;;16.60;14.80;;;;;;;;;;5054683;28;20434;-89
2021/10/10 14:00:05;;;;;;;15.53;13.93;;;;;;;;;;5057561;28;20459;-91
2021/10/10 14:02:31;;;;;;;17.97;14.57;;;;;;;;;;5060741;28;20443;-87
2021/10/10 14:04:57;;;;;;;15.60;14.00;;;;;;;;;;5055888;28;20421;-90
2021/10/10 14:07:23;;;;;;;17.30;14.03;;;;;;;;;;5061853;28;20412;-90
2021/10/10 14:09:49;;;;;;;14.43;12.90;;;;;;;;;;5057333;28;20482;-88
2021/10/10 14:12:17;;;;;;;16.80;15.07;;;;;;;;;;5057421;28;20511;-88
2021/10/10 14:14:43;;;;;;;19.43;15.77;;;;;;;;;;5057832;28;20454;-89
2021/10/10 14:17:09;;;;;;;16.07;14.47;;;;;;;;;;5056711;28;20611;-88
2021/10/10 14:19:35;;;;;;;17.87;16.17;;;;;;;;;;5057674;28;20450;-90
2021/10/10 14:22:01;;;;;;;17.63;13.87;;;;;;;;;;5059240;28;20443;-90
2021/10/10 14:24:27;;;;;;;16.50;13.97;;;;;;;;;;5054897;28;20451;-87